Brixham, United Kingdom
Current Conditions -  °F | °C
As of 1:50 PM on Saturday 25 Oct 2014 (Local Time) from EGTE Reporting Station
Rain Showers Rain Showers  
Wind Chill: 14°   Ceiling: 3500
Heat Index: 14°   Visibility: 6mi
Dew Point:   Wind: 9mph
Humidity: 67%   Direction: 250°WSW
Pressure: 30.09"   Gusts: NA
Location:  50.39°N, 3.52°W
Report Text: EGTE 251250Z 25008KT 9999 VCSH FEW015 BKN035 14/08 Q1019
Loading
Personal Weather Stations






























Interactive Weather Map
Tropical Storm Tracking
New forecast layout! Learn more

10-Day Weather Forecast

Advertisements
Track Severe Weather on mobile